Time;durP1;ratioP1;P1;durP2;ratioP2;P2;SDS_P1;SDS_P2;PMS_P1;PMS_P2;Temp;Humidity;BMP_temperature;BMP_pressure;BME280_temperature;BME280_humidity;BME280_pressure;Samples;Min_cycle;Max_cycle;Signal;HPM_P1;HPM_P2
2021/12/12 00:00:37;;;;;;;33.15;20.40;;;3.80;99.90;;;;;;5020941;28;20289;-90
2021/12/12 00:03:15;;;;;;;36.80;20.85;;;3.80;99.90;;;;;;5044794;28;20293;-90
2021/12/12 00:05:54;;;;;;;35.25;19.17;;;3.80;99.90;;;;;;5040843;28;20182;-90
2021/12/12 00:08:21;;;;;;;33.25;20.58;;;3.80;99.90;;;;;;5032207;28;20174;-89
2021/12/12 00:11:03;;;;;;;31.83;18.83;;;3.80;99.90;;;;;;5024187;28;20201;-91
2021/12/12 00:13:59;;;;;;;37.17;21.27;;;3.80;99.90;;;;;;5022178;28;20210;-91
2021/12/12 00:16:26;;;;;;;36.83;19.42;;;3.90;99.90;;;;;;5034833;28;20210;-90
2021/12/12 00:18:52;;;;;;;33.08;19.25;;;3.90;99.90;;;;;;5020073;28;20228;-89
2021/12/12 00:21:20;;;;;;;33.03;19.47;;;3.90;99.90;;;;;;5020333;28;20206;-91
2021/12/12 00:23:46;;;;;;;32.78;19.63;;;3.90;99.90;;;;;;5020324;28;20445;-91
2021/12/12 00:26:12;;;;;;;32.80;19.42;;;3.90;99.90;;;;;;5020361;28;20297;-91
2021/12/12 00:28:39;;;;;;;33.07;19.90;;;3.90;99.90;;;;;;5037358;28;20626;-91
2021/12/12 00:31:10;;;;;;;33.08;19.20;;;3.90;99.90;;;;;;5020185;28;20421;-91
2021/12/12 00:33:40;;;;;;;31.70;19.25;;;3.90;99.90;;;;;;5019614;28;20179;-89
2021/12/12 00:36:06;;;;;;;33.05;19.17;;;3.90;99.90;;;;;;5019968;28;20195;-91
2021/12/12 00:38:35;;;;;;;35.50;21.35;;;3.90;99.90;;;;;;5019880;28;20221;-89
2021/12/12 00:41:05;;;;;;;28.83;19.20;;;3.90;99.90;;;;;;5037281;28;20197;-91
2021/12/12 00:43:39;;;;;;;35.25;19.00;;;3.90;99.90;;;;;;5037430;28;20190;-90
2021/12/12 00:46:09;;;;;;;30.83;18.50;;;3.90;99.90;;;;;;5019501;28;20774;-90
2021/12/12 00:48:36;;;;;;;30.13;19.17;;;3.90;99.90;;;;;;5037295;28;20232;-91
2021/12/12 00:51:06;;;;;;;29.90;17.73;;;4.00;99.90;;;;;;5019614;28;20194;-91
2021/12/12 00:53:33;;;;;;;30.23;17.85;;;4.00;99.90;;;;;;5036808;28;20546;-89
2021/12/12 00:55:58;;;;;;;33.08;18.67;;;4.00;99.90;;;;;;5020335;28;20209;-91
2021/12/12 00:58:25;;;;;;;27.97;16.00;;;4.00;99.90;;;;;;5037277;28;20179;-91
2021/12/12 01:01:02;;;;;;;32.78;18.65;;;4.00;99.90;;;;;;5046063;28;20446;-89
2021/12/12 01:03:40;;;;;;;30.42;16.92;;;4.00;99.90;;;;;;5041372;28;20198;-91
2021/12/12 01:06:08;;;;;;;34.97;19.42;;;4.00;99.90;;;;;;5031551;28;20210;-90
2021/12/12 01:08:36;;;;;;;30.80;18.35;;;4.00;99.90;;;;;;5038314;28;20731;-90
2021/12/12 01:11:11;;;;;;;29.35;17.17;;;4.00;99.90;;;;;;5046197;28;20195;-90
2021/12/12 01:13:38;;;;;;;34.00;18.42;;;4.00;99.90;;;;;;5027709;28;20213;-88
2021/12/12 01:16:16;;;;;;;31.92;18.63;;;4.00;99.90;;;;;;5036869;28;20270;-91
2021/12/12 01:18:46;;;;;;;28.77;18.40;;;4.00;99.90;;;;;;5019176;28;20175;-91
2021/12/12 01:21:18;;;;;;;32.90;18.77;;;4.00;99.90;;;;;;5018868;28;20744;-91
2021/12/12 01:24:02;;;;;;;32.17;17.73;;;4.00;99.90;;;;;;5036543;28;20699;-91
2021/12/12 01:26:29;;;;;;;34.40;18.83;;;4.00;99.90;;;;;;5018922;28;20221;-91
2021/12/12 01:28:57;;;;;;;30.50;17.73;;;4.00;99.90;;;;;;5018748;28;20266;-91
2021/12/12 01:31:29;;;;;;;32.42;19.23;;;4.00;99.90;;;;;;5018923;28;20202;-90
2021/12/12 01:34:09;;;;;;;33.58;19.08;;;4.00;99.90;;;;;;5018772;28;20644;-91
2021/12/12 01:37:33;;;;;;;29.67;18.25;;;4.00;99.90;;;;;;5018893;28;20653;-90
2021/12/12 01:39:41;;;;;;;35.95;19.58;;;4.00;99.90;;;;;;5035020;28;20202;-91
2021/12/12 01:42:31;;;;;;;26.20;17.58;;;3.90;99.90;;;;;;5036010;28;20296;-91
2021/12/12 01:45:11;;;;;;;31.35;18.33;;;3.90;99.90;;;;;;5014655;28;20710;-91
2021/12/12 01:47:54;;;;;;;30.48;19.63;;;3.90;99.90;;;;;;5017624;28;20691;-91
2021/12/12 01:50:30;;;;;;;29.30;18.25;;;3.80;99.90;;;;;;5024244;28;20187;-90
2021/12/12 01:52:59;;;;;;;34.30;18.77;;;3.80;99.90;;;;;;5020756;28;20221;-89
2021/12/12 01:55:30;;;;;;;28.58;18.05;;;3.80;99.90;;;;;;5000878;28;20221;-89
2021/12/12 01:58:00;;;;;;;30.05;17.55;;;3.80;99.90;;;;;;5000699;28;20291;-89
2021/12/12 02:01:04;;;;;;;33.58;18.20;;;3.80;99.90;;;;;;4998300;28;20191;-90
2021/12/12 02:03:33;;;;;;;29.58;17.98;;;3.80;99.90;;;;;;4996547;28;20206;-89
2021/12/12 02:06:00;;;;;;;30.35;16.85;;;3.80;99.90;;;;;;4998445;28;20234;-91
2021/12/12 02:08:28;;;;;;;28.13;15.70;;;3.80;99.90;;;;;;4998615;28;20233;-90
2021/12/12 02:11:00;;;;;;;29.67;17.45;;;3.80;99.90;;;;;;4998783;28;20198;-90
2021/12/12 02:13:28;;;;;;;30.73;18.10;;;3.90;99.90;;;;;;4998228;28;20175;-89
2021/12/12 02:16:01;;;;;;;31.73;18.02;;;3.90;99.90;;;;;;4998393;28;20206;-90
2021/12/12 02:18:37;;;;;;;28.95;18.77;;;3.90;99.90;;;;;;4998403;28;20172;-91
2021/12/12 02:21:19;;;;;;;28.88;19.98;;;3.90;99.90;;;;;;4998041;28;20209;-91
2021/12/12 02:37:25;;;;;;;27.58;16.45;;;3.90;99.90;;;;;;5015601;28;20299;-89
2021/12/12 02:39:51;;;;;;;26.75;16.95;;;3.90;99.90;;;;;;4997399;28;20199;-91
2021/12/12 02:42:21;;;;;;;27.67;16.58;;;3.90;99.90;;;;;;5015175;28;20214;-91
2021/12/12 02:44:49;;;;;;;28.60;17.30;;;3.90;99.90;;;;;;4999649;28;20182;-89
2021/12/12 02:47:19;;;;;;;31.02;17.13;;;3.90;99.90;;;;;;5017557;28;20186;-91
2021/12/12 02:50:06;;;;;;;25.45;15.77;;;3.90;99.90;;;;;;5017690;28;20184;-90
2021/12/12 02:52:32;;;;;;;26.48;16.35;;;3.90;99.90;;;;;;5017499;28;20188;-89
2021/12/12 02:55:00;;;;;;;23.97;15.57;;;3.90;99.90;;;;;;5034977;28;20194;-91
2021/12/12 02:57:27;;;;;;;23.85;15.63;;;4.00;99.90;;;;;;5017402;28;20444;-89
2021/12/12 02:59:53;;;;;;;24.27;14.95;;;3.90;99.90;;;;;;5034780;28;20570;-89
2021/12/12 03:02:29;;;;;;;26.98;15.73;;;4.00;99.90;;;;;;5034826;28;20301;-89
2021/12/12 03:04:58;;;;;;;24.23;15.35;;;3.90;99.90;;;;;;5034796;28;20545;-90
2021/12/12 03:07:25;;;;;;;24.20;15.95;;;3.90;99.90;;;;;;5017454;28;20213;-89
2021/12/12 03:09:56;;;;;;;26.35;15.35;;;3.90;99.90;;;;;;5017239;28;20240;-91
2021/12/12 03:12:31;;;;;;;26.30;15.65;;;3.90;99.90;;;;;;5017377;28;20178;-91
2021/12/12 03:15:00;;;;;;;27.23;15.73;;;3.80;99.90;;;;;;5017823;28;20201;-91
2021/12/12 03:17:26;;;;;;;23.58;15.18;;;3.80;99.90;;;;;;5034497;28;20178;-90
2021/12/12 03:19:55;;;;;;;25.95;16.02;;;3.80;99.90;;;;;;5046335;28;20210;-91
2021/12/12 03:22:24;;;;;;;26.45;16.75;;;3.80;99.90;;;;;;5038398;28;20232;-89
2021/12/12 03:24:51;;;;;;;26.23;15.70;;;3.80;99.90;;;;;;5020458;28;20199;-90
2021/12/12 03:27:20;;;;;;;25.35;14.90;;;3.80;99.90;;;;;;5042792;28;20238;-90
2021/12/12 03:29:47;;;;;;;27.33;16.33;;;3.80;99.90;;;;;;5053765;28;20221;-90
2021/12/12 03:32:16;;;;;;;23.58;15.10;;;3.70;99.90;;;;;;5034486;28;20218;-90
2021/12/12 03:34:46;;;;;;;23.30;15.13;;;3.70;99.90;;;;;;5034390;28;20178;-90
2021/12/12 03:37:16;;;;;;;30.02;17.83;;;3.70;99.90;;;;;;5019739;28;20553;-89
2021/12/12 03:39:45;;;;;;;21.50;14.13;;;3.70;99.90;;;;;;5056196;28;20559;-89
2021/12/12 03:42:17;;;;;;;26.33;15.80;;;3.70;99.90;;;;;;5021095;28;20684;-89
2021/12/12 03:44:45;;;;;;;30.67;17.27;;;3.70;99.90;;;;;;5019956;28;20270;-90
2021/12/12 03:47:21;;;;;;;23.90;14.85;;;3.60;99.90;;;;;;5020780;28;20182;-89
2021/12/12 03:49:47;;;;;;;23.08;15.13;;;3.60;99.90;;;;;;5021297;28;20170;-91
2021/12/12 03:52:16;;;;;;;27.90;17.27;;;3.60;99.90;;;;;;5038221;28;20520;-89
2021/12/12 03:54:42;;;;;;;23.52;15.75;;;3.60;99.90;;;;;;5053928;28;20206;-90
2021/12/12 03:57:08;;;;;;;28.67;17.67;;;3.60;99.90;;;;;;5037960;28;20186;-90
2021/12/12 03:59:35;;;;;;;27.70;16.55;;;3.60;99.90;;;;;;5020376;28;20185;-91
2021/12/12 04:02:01;;;;;;;27.67;16.52;;;3.60;99.90;;;;;;5038213;28;20245;-91
2021/12/12 04:04:34;;;;;;;25.02;15.55;;;3.60;99.90;;;;;;5020261;28;20266;-90
2021/12/12 04:07:04;;;;;;;29.55;16.50;;;3.60;99.90;;;;;;5012559;28;20183;-89
2021/12/12 04:09:30;;;;;;;25.38;16.33;;;3.50;99.90;;;;;;5053197;28;20201;-90
2021/12/12 04:12:02;;;;;;;26.93;16.13;;;3.60;99.90;;;;;;5053872;28;20182;-89
2021/12/12 04:14:28;;;;;;;27.55;16.40;;;3.50;99.90;;;;;;5020091;28;20387;-89
2021/12/12 04:17:00;;;;;;;31.20;16.50;;;3.50;99.90;;;;;;5020935;28;20170;-91
2021/12/12 04:19:27;;;;;;;24.48;15.13;;;3.60;99.90;;;;;;5021785;28;20218;-89
2021/12/12 04:21:53;;;;;;;25.58;16.45;;;3.60;99.90;;;;;;5041191;28;20608;-89
2021/12/12 04:24:25;;;;;;;23.67;15.45;;;3.60;99.90;;;;;;5035739;28;20242;-90
2021/12/12 04:26:51;;;;;;;22.70;14.50;;;3.60;99.90;;;;;;5038975;28;20198;-90
2021/12/12 04:29:25;;;;;;;24.15;15.80;;;3.60;99.90;;;;;;5045342;28;20262;-90
2021/12/12 04:31:57;;;;;;;27.08;15.98;;;3.60;99.90;;;;;;5019897;28;20205;-91
2021/12/12 04:34:26;;;;;;;25.15;14.90;;;3.60;99.90;;;;;;5052586;28;20179;-90
2021/12/12 04:36:53;;;;;;;28.33;16.05;;;3.70;99.90;;;;;;5053618;28;20199;-90
2021/12/12 04:39:28;;;;;;;26.13;15.73;;;3.70;99.90;;;;;;5039739;28;20183;-89
2021/12/12 04:42:05;;;;;;;27.38;16.33;;;3.70;99.90;;;;;;5038038;28;20209;-91
2021/12/12 04:44:35;;;;;;;24.83;15.70;;;3.70;99.90;;;;;;5037353;28;20726;-91
2021/12/12 04:50:36;;;;;;;31.13;16.90;;;3.70;99.90;;;;;;5037645;28;20601;-89
2021/12/12 04:53:11;;;;;;;30.60;17.70;;;3.70;99.90;;;;;;5036797;28;20181;-91
2021/12/12 04:55:55;;;;;;;24.45;16.35;;;3.70;99.90;;;;;;5018304;28;20395;-89
2021/12/12 04:58:41;;;;;;;30.27;16.00;;;3.70;99.90;;;;;;5035395;28;20205;-90
2021/12/12 05:01:25;;;;;;;23.95;15.18;;;3.70;99.90;;;;;;5017166;28;20190;-89
2021/12/12 05:04:05;;;;;;;26.77;16.35;;;3.70;99.90;;;;;;5017477;28;20280;-89
2021/12/12 05:06:55;;;;;;;28.67;16.38;;;3.60;99.90;;;;;;5017655;28;20753;-89
2021/12/12 05:09:27;;;;;;;30.75;16.42;;;3.60;99.90;;;;;;5036078;28;20225;-89
2021/12/12 05:12:22;;;;;;;28.83;15.73;;;3.60;99.90;;;;;;5019663;28;20751;-89
2021/12/12 05:14:59;;;;;;;25.08;15.45;;;3.60;99.90;;;;;;5021038;28;20720;-91
2021/12/12 05:17:40;;;;;;;25.50;15.70;;;3.60;99.90;;;;;;5068006;28;20170;-90
2021/12/12 05:20:22;;;;;;;27.98;16.83;;;3.60;99.90;;;;;;5068799;28;20254;-90
2021/12/12 05:22:51;;;;;;;28.02;17.15;;;3.70;99.90;;;;;;5068042;28;20222;-89
2021/12/12 05:25:26;;;;;;;28.08;16.10;;;3.70;99.90;;;;;;5034440;28;20199;-89
2021/12/12 05:27:54;;;;;;;29.58;17.02;;;3.70;99.90;;;;;;5020907;28;20177;-90
2021/12/12 05:30:24;;;;;;;25.80;15.88;;;3.70;99.90;;;;;;5018635;28;20209;-90
2021/12/12 05:32:51;;;;;;;27.35;16.92;;;3.70;99.90;;;;;;5052111;28;20177;-90
2021/12/12 05:35:21;;;;;;;27.70;17.23;;;3.70;99.90;;;;;;5019072;28;20202;-91
2021/12/12 05:37:50;;;;;;;27.73;17.00;;;3.70;99.90;;;;;;5036278;28;20177;-89
2021/12/12 05:40:18;;;;;;;27.50;14.82;;;3.70;99.90;;;;;;5018791;28;20244;-89
2021/12/12 05:42:44;;;;;;;24.42;15.63;;;3.70;99.90;;;;;;5018482;28;20214;-91
2021/12/12 05:45:11;;;;;;;24.42;17.35;;;3.70;99.90;;;;;;5018024;28;20237;-91
2021/12/12 05:47:38;;;;;;;24.75;16.25;;;3.70;99.90;;;;;;5052128;28;20701;-89
2021/12/12 05:50:06;;;;;;;25.08;16.63;;;3.80;99.90;;;;;;5018316;28;20285;-90
2021/12/12 05:52:32;;;;;;;29.23;17.15;;;3.80;99.90;;;;;;5051549;28;20236;-89
2021/12/12 05:54:59;;;;;;;33.40;17.33;;;3.80;99.90;;;;;;5018623;28;20253;-89
2021/12/12 05:57:26;;;;;;;28.65;17.10;;;3.80;99.90;;;;;;5036083;28;20218;-88
2021/12/12 05:59:54;;;;;;;27.65;16.38;;;3.80;99.90;;;;;;5026976;28;20182;-90
2021/12/12 06:02:22;;;;;;;29.25;17.90;;;3.80;99.90;;;;;;5052202;28;20217;-90
2021/12/12 06:04:48;;;;;;;29.83;17.60;;;3.80;99.90;;;;;;5036166;28;20190;-89
2021/12/12 06:07:22;;;;;;;29.15;18.05;;;3.80;99.90;;;;;;5041484;28;20181;-90
2021/12/12 06:09:49;;;;;;;29.85;17.67;;;3.80;99.90;;;;;;5018441;28;20690;-89
2021/12/12 06:12:16;;;;;;;32.70;20.15;;;3.80;99.90;;;;;;5035674;28;20225;-91
2021/12/12 06:14:44;;;;;;;30.33;17.25;;;3.80;99.90;;;;;;5018316;28;20189;-89
2021/12/12 06:17:14;;;;;;;35.53;18.83;;;3.70;99.90;;;;;;5020522;28;20261;-90
2021/12/12 06:19:47;;;;;;;30.30;17.23;;;3.70;99.90;;;;;;5017819;28;20666;-89
2021/12/12 06:22:14;;;;;;;27.45;17.73;;;3.70;99.90;;;;;;5018049;28;20245;-90
2021/12/12 06:24:41;;;;;;;32.95;19.65;;;3.70;99.90;;;;;;5017622;28;20583;-89
2021/12/12 06:27:14;;;;;;;32.40;20.00;;;3.70;99.90;;;;;;5017501;28;20554;-90
2021/12/12 06:29:42;;;;;;;33.50;20.13;;;3.60;99.90;;;;;;5035280;28;20620;-90
2021/12/12 06:32:08;;;;;;;38.50;21.00;;;3.60;99.90;;;;;;5017575;28;20586;-91
2021/12/12 06:34:34;;;;;;;32.53;20.45;;;3.60;99.90;;;;;;5018034;28;20185;-91
2021/12/12 06:37:01;;;;;;;37.35;22.42;;;3.60;99.90;;;;;;5035230;28;20546;-89
2021/12/12 06:39:27;;;;;;;33.65;18.70;;;3.50;99.90;;;;;;5035363;28;20182;-90
2021/12/12 06:41:54;;;;;;;27.53;18.20;;;3.50;99.90;;;;;;5017738;28;20222;-91
2021/12/12 06:44:20;;;;;;;29.67;18.83;;;3.50;99.90;;;;;;5050722;28;20386;-91
2021/12/12 06:46:47;;;;;;;35.83;22.02;;;3.50;99.90;;;;;;5017395;28;20238;-89
2021/12/12 06:49:16;;;;;;;36.28;19.80;;;3.50;99.90;;;;;;5050553;28;20183;-91
2021/12/12 06:51:51;;;;;;;31.13;18.58;;;3.50;99.90;;;;;;5017387;28;20245;-90
2021/12/12 06:54:20;;;;;;;36.00;19.52;;;3.50;99.90;;;;;;5017540;28;20639;-90
2021/12/12 06:56:48;;;;;;;32.20;19.95;;;3.50;99.90;;;;;;5017465;28;20198;-89
2021/12/12 06:59:14;;;;;;;30.90;19.05;;;3.50;99.90;;;;;;5017258;28;20179;-88
2021/12/12 07:01:40;;;;;;;32.55;18.75;;;3.60;99.90;;;;;;5016947;28;20210;-91
2021/12/12 07:04:09;;;;;;;34.60;20.52;;;3.60;99.90;;;;;;5021563;28;20174;-91
2021/12/12 07:06:36;;;;;;;51.97;29.08;;;3.60;99.90;;;;;;5054842;28;20187;-91
2021/12/12 07:09:05;;;;;;;58.30;29.95;;;3.60;99.90;;;;;;5050137;28;20562;-89
2021/12/12 07:11:32;;;;;;;63.30;30.20;;;3.60;99.90;;;;;;5034731;28;20198;-90
2021/12/12 07:13:58;;;;;;;60.17;33.80;;;3.70;99.90;;;;;;5017226;28;20193;-91
2021/12/12 07:16:24;;;;;;;60.78;34.92;;;3.70;99.90;;;;;;5017065;28;20194;-90
2021/12/12 07:18:54;;;;;;;32.40;19.90;;;3.70;99.90;;;;;;5017281;28;20189;-90
2021/12/12 07:21:20;;;;;;;47.92;28.48;;;3.70;99.90;;;;;;5034757;28;20201;-91
2021/12/12 07:23:49;;;;;;;41.20;23.92;;;3.70;99.90;;;;;;5017328;28;20233;-90
2021/12/12 07:26:16;;;;;;;44.33;24.50;;;3.80;99.90;;;;;;5018950;28;20206;-90
2021/12/12 07:28:44;;;;;;;39.05;23.50;;;3.80;99.90;;;;;;5020516;28;20237;-89
2021/12/12 07:31:15;;;;;;;35.10;20.90;;;3.80;99.90;;;;;;5017619;28;20202;-90
2021/12/12 07:33:43;;;;;;;33.83;19.85;;;3.80;99.90;;;;;;5017311;28;20245;-89
2021/12/12 07:36:11;;;;;;;28.13;17.27;;;3.80;99.90;;;;;;5016923;28;20199;-91
2021/12/12 07:38:41;;;;;;;30.40;18.75;;;3.90;99.90;;;;;;5050123;28;20186;-91
2021/12/12 07:41:07;;;;;;;31.73;18.15;;;3.90;99.90;;;;;;5017506;28;20618;-89
2021/12/12 07:43:34;;;;;;;31.60;18.13;;;3.90;99.90;;;;;;5034594;28;20289;-91
2021/12/12 07:46:01;;;;;;;35.15;21.50;;;3.90;99.90;;;;;;5034512;28;20234;-89
2021/12/12 07:48:27;;;;;;;36.35;21.17;;;4.00;99.90;;;;;;5034549;28;20217;-91
2021/12/12 07:50:53;;;;;;;31.23;19.92;;;4.00;99.90;;;;;;5017147;28;20202;-90
2021/12/12 07:53:23;;;;;;;34.95;18.92;;;4.00;99.90;;;;;;5017389;28;20317;-90
2021/12/12 07:55:49;;;;;;;29.98;18.83;;;4.00;99.90;;;;;;5016741;28;20213;-90
2021/12/12 07:58:17;;;;;;;34.60;20.98;;;4.00;99.90;;;;;;5052489;28;20234;-91
2021/12/12 08:00:48;;;;;;;37.60;21.42;;;4.00;99.90;;;;;;5017489;28;20203;-91
2021/12/12 08:03:16;;;;;;;35.67;21.27;;;4.00;99.90;;;;;;5016636;28;20234;-91
2021/12/12 08:05:42;;;;;;;32.50;19.08;;;4.00;99.90;;;;;;5034492;28;20635;-89
2021/12/12 08:08:11;;;;;;;33.03;19.80;;;4.00;99.90;;;;;;5016553;28;20183;-89
2021/12/12 08:10:40;;;;;;;32.00;19.15;;;4.00;99.90;;;;;;5049562;28;20205;-90
2021/12/12 08:13:08;;;;;;;31.30;18.92;;;4.00;99.90;;;;;;5016996;28;20215;-92
2021/12/12 08:15:34;;;;;;;34.42;21.33;;;4.00;99.90;;;;;;5016427;28;20203;-90
2021/12/12 08:18:01;;;;;;;29.40;17.47;;;3.90;99.90;;;;;;5017313;28;20183;-89
2021/12/12 08:20:30;;;;;;;38.95;20.48;;;3.90;99.90;;;;;;5017164;28;20422;-91
2021/12/12 08:22:57;;;;;;;35.85;20.60;;;4.00;99.90;;;;;;5019847;28;20317;-89
2021/12/12 08:25:25;;;;;;;33.92;19.48;;;4.00;99.90;;;;;;5056822;28;20198;-89
2021/12/12 08:27:52;;;;;;;34.42;19.50;;;4.00;99.90;;;;;;5022518;28;20206;-89
2021/12/12 08:30:20;;;;;;;28.65;18.80;;;4.00;99.90;;;;;;5037771;28;20194;-90
2021/12/12 08:32:49;;;;;;;30.50;18.65;;;4.00;99.90;;;;;;5020181;28;20301;-89
2021/12/12 08:35:17;;;;;;;35.55;20.42;;;4.00;99.90;;;;;;5037464;28;20252;-91
2021/12/12 08:37:44;;;;;;;34.55;21.50;;;4.00;99.90;;;;;;5037806;28;20223;-88
2021/12/12 08:40:15;;;;;;;31.63;21.25;;;4.10;99.90;;;;;;5020468;28;20203;-89
2021/12/12 08:42:41;;;;;;;33.22;19.05;;;4.10;99.90;;;;;;5060876;28;20294;-91
2021/12/12 08:45:14;;;;;;;40.28;22.45;;;4.10;99.90;;;;;;5030997;28;20238;-91
2021/12/12 08:47:40;;;;;;;40.13;22.55;;;4.10;99.90;;;;;;5000093;28;20175;-90
2021/12/12 08:50:10;;;;;;;33.83;21.45;;;4.20;99.90;;;;;;5019952;28;20213;-90
2021/12/12 08:52:39;;;;;;;33.25;21.00;;;4.10;99.90;;;;;;5019829;28;20661;-90
2021/12/12 08:55:15;;;;;;;33.13;20.27;;;4.20;99.90;;;;;;5019583;28;20285;-91
2021/12/12 08:58:02;;;;;;;36.97;20.65;;;4.20;99.90;;;;;;5019235;28;20635;-90
2021/12/12 09:00:32;;;;;;;32.90;18.77;;;4.20;99.90;;;;;;5019491;28;20606;-90
2021/12/12 09:02:58;;;;;;;32.15;19.40;;;4.20;99.90;;;;;;5018715;28;20217;-89
2021/12/12 09:05:34;;;;;;;31.65;18.63;;;4.30;99.90;;;;;;5019670;28;20203;-90
2021/12/12 09:08:08;;;;;;;30.33;18.63;;;4.20;99.90;;;;;;5019282;28;20619;-89
2021/12/12 09:10:50;;;;;;;36.97;20.27;;;4.30;99.90;;;;;;5019418;28;20212;-89
2021/12/12 09:13:25;;;;;;;39.65;20.55;;;4.20;99.90;;;;;;5036789;28;20655;-90
2021/12/12 09:16:06;;;;;;;32.05;18.75;;;4.20;99.90;;;;;;5037069;28;20240;-89
2021/12/12 09:18:46;;;;;;;35.50;21.02;;;4.20;99.90;;;;;;5018923;28;20178;-90
2021/12/12 09:21:24;;;;;;;33.97;20.40;;;4.20;99.90;;;;;;5036928;28;20253;-91
2021/12/12 09:24:10;;;;;;;34.83;19.05;;;4.20;99.90;;;;;;5024590;28;20254;-90
2021/12/12 09:26:46;;;;;;;33.80;20.80;;;4.20;99.90;;;;;;5021533;28;20208;-89
2021/12/12 09:29:18;;;;;;;34.50;20.42;;;4.20;99.90;;;;;;5037113;28;20170;-90
2021/12/12 09:32:27;;;;;;;30.45;20.45;;;4.20;99.90;;;;;;5018927;28;20213;-90
2021/12/12 09:35:00;;;;;;;34.88;19.40;;;4.20;99.90;;;;;;5010179;28;20225;-90
2021/12/12 09:37:33;;;;;;;34.63;21.40;;;4.20;99.90;;;;;;5036213;28;20209;-90
2021/12/12 09:40:08;;;;;;;33.03;20.85;;;4.20;99.90;;;;;;5018593;28;20269;-89
2021/12/12 09:43:16;;;;;;;31.33;19.52;;;4.20;99.90;;;;;;5018582;28;20213;-89
2021/12/12 09:46:03;;;;;;;32.65;19.00;;;4.20;99.90;;;;;;5018039;28;20234;-90
2021/12/12 09:52:30;;;;;;;34.35;21.30;;;4.20;99.90;;;;;;5043783;28;20257;-91
2021/12/12 09:55:08;;;;;;;35.10;20.20;;;4.20;99.90;;;;;;5034405;28;20230;-91
2021/12/12 09:57:41;;;;;;;31.10;19.15;;;4.20;99.90;;;;;;5035456;28;20245;-90
2021/12/12 10:00:06;;;;;;;34.00;18.50;;;4.20;99.90;;;;;;5018129;28;20232;-90
2021/12/12 10:02:41;;;;;;;35.30;18.57;;;4.20;99.90;;;;;;5050334;28;20214;-89
2021/12/12 10:05:17;;;;;;;31.50;18.55;;;4.20;99.90;;;;;;5054255;28;20204;-90
2021/12/12 10:07:43;;;;;;;33.22;18.83;;;4.30;99.90;;;;;;5052476;28;20224;-90
2021/12/12 10:10:28;;;;;;;36.43;19.80;;;4.30;99.90;;;;;;5035567;28;20195;-89
2021/12/12 10:13:07;;;;;;;29.02;17.63;;;4.30;99.90;;;;;;5051366;28;20178;-91
2021/12/12 10:15:41;;;;;;;29.52;18.27;;;4.30;99.90;;;;;;5051223;28;20194;-89
2021/12/12 10:18:19;;;;;;;30.00;18.90;;;4.30;99.90;;;;;;5051130;28;20201;-90
2021/12/12 10:20:51;;;;;;;32.10;19.25;;;4.40;99.90;;;;;;5033565;28;20198;-90
2021/12/12 10:23:17;;;;;;;31.17;19.48;;;4.40;99.90;;;;;;5016236;28;20755;-89
2021/12/12 10:25:52;;;;;;;32.73;19.03;;;4.40;99.90;;;;;;5033411;28;20289;-89
2021/12/12 10:28:18;;;;;;;31.20;18.58;;;4.40;99.90;;;;;;5016065;28;20175;-90
2021/12/12 10:31:11;;;;;;;31.90;19.60;;;4.40;99.90;;;;;;5034201;28;20420;-89
2021/12/12 10:34:04;;;;;;;33.95;18.92;;;4.40;99.90;;;;;;5016257;28;20727;-92
2021/12/12 10:36:33;;;;;;;31.15;17.80;;;4.40;99.90;;;;;;5050755;28;20560;-90
2021/12/12 10:39:20;;;;;;;30.15;17.30;;;4.40;99.90;;;;;;5050354;28;20186;-89
2021/12/12 10:41:59;;;;;;;32.42;18.27;;;4.30;99.90;;;;;;5054540;28;20281;-89
2021/12/12 10:44:34;;;;;;;29.67;18.25;;;4.30;99.90;;;;;;5051952;28;20643;-91
2021/12/12 10:47:11;;;;;;;31.38;19.17;;;4.30;99.90;;;;;;5034950;28;20186;-91
2021/12/12 10:50:04;;;;;;;31.77;19.88;;;4.30;99.90;;;;;;5034889;28;20651;-90
2021/12/12 10:52:40;;;;;;;34.20;19.08;;;4.30;99.90;;;;;;5040384;28;20159;-89
2021/12/12 10:55:17;;;;;;;31.73;19.25;;;4.30;99.90;;;;;;5053089;28;20669;-91
2021/12/12 10:57:48;;;;;;;31.35;18.88;;;4.20;99.90;;;;;;5050564;28;20679;-89
2021/12/12 11:00:22;;;;;;;31.05;18.13;;;4.20;99.90;;;;;;5050265;28;20229;-90
2021/12/12 11:03:01;;;;;;;35.85;19.67;;;4.20;99.90;;;;;;5050697;28;20292;-91
2021/12/12 11:05:34;;;;;;;31.20;19.88;;;4.20;99.90;;;;;;5049940;28;20731;-91
2021/12/12 11:08:11;;;;;;;32.88;19.42;;;4.20;99.90;;;;;;5017336;28;20178;-90
2021/12/12 11:10:41;;;;;;;30.90;17.75;;;4.20;99.90;;;;;;5033702;28;20183;-91
2021/12/12 11:13:18;;;;;;;29.77;18.15;;;4.20;99.90;;;;;;5017298;28;20174;-91
2021/12/12 11:15:50;;;;;;;28.02;18.13;;;4.20;99.90;;;;;;5049508;28;20667;-90
2021/12/12 11:18:25;;;;;;;32.85;19.17;;;4.20;99.90;;;;;;5017343;28;20174;-90
2021/12/12 11:20:59;;;;;;;27.98;18.63;;;4.20;99.90;;;;;;5034999;28;20202;-89
2021/12/12 11:23:50;;;;;;;29.08;17.25;;;4.20;99.90;;;;;;5050424;28;20210;-91
2021/12/12 11:26:22;;;;;;;29.08;17.70;;;4.20;99.90;;;;;;5016384;28;20194;-91
2021/12/12 11:28:59;;;;;;;26.00;15.55;;;4.20;99.90;;;;;;5019070;28;20237;-91
2021/12/12 11:31:37;;;;;;;28.83;17.13;;;4.30;99.90;;;;;;5059486;28;20198;-89
2021/12/12 11:34:06;;;;;;;31.33;19.70;;;4.30;99.90;;;;;;5017654;28;20174;-91
2021/12/12 11:37:05;;;;;;;22.95;15.13;;;4.30;99.90;;;;;;5020577;28;20229;-89
2021/12/12 11:40:11;;;;;;;29.27;17.90;;;4.30;99.90;;;;;;5015356;28;20213;-89
2021/12/12 11:42:44;;;;;;;25.52;16.90;;;4.30;99.90;;;;;;5051650;28;20667;-91
2021/12/12 11:45:38;;;;;;;28.15;17.00;;;4.30;99.90;;;;;;5019193;28;20238;-91
2021/12/12 11:48:23;;;;;;;29.95;17.17;;;4.30;99.90;;;;;;5018125;28;20209;-90
2021/12/12 11:51:06;;;;;;;27.00;17.63;;;4.30;99.90;;;;;;5034879;28;20664;-91
2021/12/12 11:53:37;;;;;;;25.88;16.67;;;4.30;99.90;;;;;;5017222;28;20183;-91
2021/12/12 11:56:18;;;;;;;30.88;16.65;;;4.30;99.90;;;;;;5034800;28;20205;-91
2021/12/12 11:58:56;;;;;;;30.83;17.80;;;4.30;99.90;;;;;;5037757;28;20181;-90
2021/12/12 12:01:40;;;;;;;27.38;17.42;;;4.30;99.90;;;;;;5020738;28;20197;-89
2021/12/12 12:04:18;;;;;;;30.67;18.13;;;4.30;99.90;;;;;;5049243;28;20186;-90
2021/12/12 12:06:50;;;;;;;29.38;17.92;;;4.30;99.90;;;;;;5042703;28;20198;-88
2021/12/12 12:09:19;;;;;;;29.42;16.70;;;4.30;99.90;;;;;;5041123;28;20178;-89
2021/12/12 12:12:08;;;;;;;26.02;18.52;;;4.30;99.90;;;;;;5030930;28;20225;-92
2021/12/12 12:15:10;;;;;;;31.23;17.63;;;4.30;99.90;;;;;;5020228;28;20186;-91
2021/12/12 12:17:49;;;;;;;31.25;17.10;;;4.20;99.90;;;;;;5018107;28;20647;-90
2021/12/12 12:20:44;;;;;;;32.50;17.95;;;4.20;99.90;;;;;;5018131;28;20324;-91
2021/12/12 12:23:20;;;;;;;32.75;19.05;;;4.20;99.90;;;;;;5022655;28;20229;-89
2021/12/12 12:28:56;;;;;;;32.38;20.00;;;4.10;99.90;;;;;;5035869;28;20200;-92
2021/12/12 12:31:35;;;;;;;32.28;18.67;;;4.10;99.90;;;;;;5023342;28;20206;-91
2021/12/12 12:34:38;;;;;;;30.75;20.25;;;4.00;99.90;;;;;;5011168;28;20194;-93
2021/12/12 12:37:46;;;;;;;31.63;19.05;;;4.00;99.90;;;;;;5018036;28;20198;-91
2021/12/12 12:40:43;;;;;;;28.73;18.77;;;3.90;99.90;;;;;;5020104;28;20202;-92
2021/12/12 12:43:42;;;;;;;32.05;19.42;;;3.90;99.90;;;;;;5022439;28;20221;-92
2021/12/12 12:46:08;;;;;;;34.40;20.70;;;3.90;99.90;;;;;;5015160;28;20326;-93
2021/12/12 12:49:11;;;;;;;37.27;19.77;;;3.80;99.90;;;;;;4998539;28;20215;-92
2021/12/12 12:52:01;;;;;;;30.98;19.98;;;3.80;99.90;;;;;;5030593;28;20960;-93
2021/12/12 12:54:47;;;;;;;28.33;18.73;;;3.70;99.90;;;;;;5018634;28;20225;-94
2021/12/12 12:57:38;;;;;;;31.08;18.27;;;3.70;99.90;;;;;;5046199;28;20189;-94
2021/12/12 13:00:28;;;;;;;29.42;17.27;;;3.60;99.90;;;;;;5019543;28;20717;-92
2021/12/12 13:03:13;;;;;;;27.58;17.75;;;3.60;99.90;;;;;;5036095;28;20210;-92
2021/12/12 13:06:04;;;;;;;28.60;18.00;;;3.60;99.90;;;;;;5018644;28;20234;-93
2021/12/12 13:08:48;;;;;;;34.50;20.20;;;3.50;99.90;;;;;;5031850;28;20175;-90
2021/12/12 13:11:22;;;;;;;32.45;19.02;;;3.40;99.90;;;;;;5024535;28;20617;-90
2021/12/12 13:13:59;;;;;;;28.70;17.85;;;3.40;99.90;;;;;;5000291;28;20191;-89
2021/12/12 13:16:33;;;;;;;31.65;19.42;;;3.30;99.90;;;;;;5034216;28;20202;-92
2021/12/12 13:19:13;;;;;;;36.30;18.15;;;3.30;99.90;;;;;;5030522;28;20194;-91
2021/12/12 13:22:10;;;;;;;30.80;17.95;;;3.30;99.90;;;;;;5032535;28;20233;-90
2021/12/12 13:25:07;;;;;;;34.45;18.70;;;3.30;99.90;;;;;;5012394;28;20179;-89
2021/12/12 13:28:15;;;;;;;30.98;17.98;;;3.40;99.90;;;;;;5023197;28;20186;-90
2021/12/12 13:31:01;;;;;;;30.15;17.40;;;3.50;99.90;;;;;;5018036;28;20205;-90
2021/12/12 13:33:43;;;;;;;35.33;19.35;;;3.50;99.90;;;;;;5018666;28;20197;-91